sensor_id;sensor_type;location;lat;lon;timestamp;pressure;altitude;pressure_sealevel;temperature;humidity
11045;BME280;9786;42.714;23.272;2022-07-10T00:01:11;94892.47;;;15.27;100.00
11045;BME280;9786;42.714;23.272;2022-07-10T00:03:58;94892.63;;;15.26;100.00
11045;BME280;9786;42.714;23.272;2022-07-10T00:17:06;94888.03;;;15.13;100.00
11045;BME280;9786;42.714;23.272;2022-07-10T00:20:25;94891.38;;;15.07;100.00
11045;BME280;9786;42.714;23.272;2022-07-10T00:23:21;94888.09;;;15.05;100.00
11045;BME280;9786;42.714;23.272;2022-07-10T00:26:11;94890.03;;;15.11;100.00
11045;BME280;9786;42.714;23.272;2022-07-10T00:29:00;94882.78;;;15.13;100.00
11045;BME280;9786;42.714;23.272;2022-07-10T00:31:54;94876.63;;;15.06;100.00
11045;BME280;9786;42.714;23.272;2022-07-10T00:35:00;94881.22;;;15.04;100.00
11045;BME280;9786;42.714;23.272;2022-07-10T00:38:00;94878.97;;;15.01;100.00
11045;BME280;9786;42.714;23.272;2022-07-10T01:09:27;94871.81;;;14.80;100.00
11045;BME280;9786;42.714;23.272;2022-07-10T01:12:15;94869.25;;;14.72;100.00
11045;BME280;9786;42.714;23.272;2022-07-10T01:15:03;94869.81;;;14.67;100.00
11045;BME280;9786;42.714;23.272;2022-07-10T01:17:41;94867.88;;;14.61;100.00
11045;BME280;9786;42.714;23.272;2022-07-10T01:20:30;94863.84;;;14.59;100.00
11045;BME280;9786;42.714;23.272;2022-07-10T01:23:26;94866.00;;;14.55;100.00
11045;BME280;9786;42.714;23.272;2022-07-10T01:26:32;94868.53;;;14.63;100.00
11045;BME280;9786;42.714;23.272;2022-07-10T01:29:21;94857.16;;;14.71;100.00
11045;BME280;9786;42.714;23.272;2022-07-10T01:32:05;94853.78;;;14.77;100.00
11045;BME280;9786;42.714;23.272;2022-07-10T01:34:52;94851.63;;;14.81;100.00
11045;BME280;9786;42.714;23.272;2022-07-10T01:37:39;94849.00;;;14.81;100.00
11045;BME280;9786;42.714;23.272;2022-07-10T01:40:27;94846.59;;;14.79;100.00
11045;BME280;9786;42.714;23.272;2022-07-10T01:43:15;94839.88;;;14.76;100.00
11045;BME280;9786;42.714;23.272;2022-07-10T01:46:03;94836.63;;;14.74;100.00
11045;BME280;9786;42.714;23.272;2022-07-10T01:48:50;94843.50;;;14.75;100.00
11045;BME280;9786;42.714;23.272;2022-07-10T02:04:18;94838.69;;;14.64;100.00
11045;BME280;9786;42.714;23.272;2022-07-10T02:07:24;94827.38;;;14.64;100.00
11045;BME280;9786;42.714;23.272;2022-07-10T02:10:13;94826.91;;;14.60;100.00
11045;BME280;9786;42.714;23.272;2022-07-10T02:13:01;94830.81;;;14.64;100.00
11045;BME280;9786;42.714;23.272;2022-07-10T02:15:49;94826.75;;;14.62;100.00
11045;BME280;9786;42.714;23.272;2022-07-10T02:18:36;94825.22;;;14.67;100.00
11045;BME280;9786;42.714;23.272;2022-07-10T02:21:24;94828.66;;;14.68;100.00
11045;BME280;9786;42.714;23.272;2022-07-10T02:24:12;94822.97;;;14.64;100.00
11045;BME280;9786;42.714;23.272;2022-07-10T02:26:59;94828.53;;;14.61;100.00
11045;BME280;9786;42.714;23.272;2022-07-10T02:29:45;94828.91;;;14.58;100.00
11045;BME280;9786;42.714;23.272;2022-07-10T02:32:32;94829.13;;;14.57;100.00
11045;BME280;9786;42.714;23.272;2022-07-10T02:35:19;94825.84;;;14.55;100.00
11045;BME280;9786;42.714;23.272;2022-07-10T02:38:06;94819.50;;;14.49;100.00
11045;BME280;9786;42.714;23.272;2022-07-10T02:40:53;94822.47;;;14.46;100.00
11045;BME280;9786;42.714;23.272;2022-07-10T10:40:01;94674.84;;;27.44;47.48
11045;BME280;9786;42.714;23.272;2022-07-10T10:43:18;94660.44;;;27.66;45.42
11045;BME280;9786;42.714;23.272;2022-07-10T11:05:48;94644.38;;;28.06;46.58
11045;BME280;9786;42.714;23.272;2022-07-10T11:08:39;94654.03;;;28.43;44.19
11045;BME280;9786;42.714;23.272;2022-07-10T11:11:40;94646.81;;;27.98;45.70
11045;BME280;9786;42.714;23.272;2022-07-10T11:14:47;94648.28;;;27.17;45.67
11045;BME280;9786;42.714;23.272;2022-07-10T11:17:40;94649.69;;;26.30;48.40
11045;BME280;9786;42.714;23.272;2022-07-10T12:15:30;94658.28;;;26.32;45.91
11045;BME280;9786;42.714;23.272;2022-07-10T12:18:35;94650.78;;;26.34;45.39
11045;BME280;9786;42.714;23.272;2022-07-10T12:21:26;94647.59;;;25.95;45.19
11045;BME280;9786;42.714;23.272;2022-07-10T12:24:28;94654.69;;;26.16;46.16
11045;BME280;9786;42.714;23.272;2022-07-10T12:27:40;94641.97;;;25.96;47.15
11045;BME280;9786;42.714;23.272;2022-07-10T12:30:46;94641.25;;;26.06;46.66
11045;BME280;9786;42.714;23.272;2022-07-10T12:33:50;94637.84;;;25.79;45.84
11045;BME280;9786;42.714;23.272;2022-07-10T18:52:45;94824.63;;;18.96;83.90
11045;BME280;9786;42.714;23.272;2022-07-10T22:19:08;94922.44;;;16.91;97.79
11045;BME280;9786;42.714;23.272;2022-07-10T22:22:02;94917.38;;;16.90;97.11
11045;BME280;9786;42.714;23.272;2022-07-10T22:35:14;94914.97;;;16.95;94.59
11045;BME280;9786;42.714;23.272;2022-07-10T22:38:10;94918.63;;;16.94;93.57
11045;BME280;9786;42.714;23.272;2022-07-10T22:51:34;94930.91;;;17.15;89.08
11045;BME280;9786;42.714;23.272;2022-07-10T22:54:43;94929.34;;;17.20;86.93
11045;BME280;9786;42.714;23.272;2022-07-10T22:58:02;94932.19;;;17.25;87.18
11045;BME280;9786;42.714;23.272;2022-07-10T23:16:18;94931.44;;;17.31;85.91
